Terminal Aerodrome Forecast
Issued by NWS Norman, OK

Home | Current Version | Previous Version | Text Only | Print | Product List | Glossary On
Versions: 1 2 3 4 5 6 7 8 9 10 11 12 13 14 15 16 17 18 19 20 21 22 23 24 25 26 27 28
000
FTUS44 KOUN 040638 AAA
TAFOKC
TAF AMD
KOKC 040638Z 0407/0506 VRB05KT P6SM SCT050 BKN250
      TEMPO 0407/0410 2SM -TSRA BKN030CB
     FM041000 VRB06KT 5SM BR SCT015
     FM041500 07008KT P6SM SCT025
     FM041800 12008KT P6SM SCT050 BKN120 PROB30 0420/0424 3SM TSRA
      BKN050CB BKN120=

USA.gov is the U.S. government's official web portal to all federal, state and local government web resources and services.